createdAt,value
2022-09-06T00:01:18.473Z,8.90
2022-09-06T00:03:47.008Z,8.10
2022-09-06T00:06:18.660Z,10.40
2022-09-06T00:08:49.332Z,9.50
2022-09-06T00:11:19.161Z,8.20
2022-09-06T00:13:48.671Z,7.90
2022-09-06T00:16:21.470Z,7.20
2022-09-06T00:18:54.031Z,5.60
2022-09-06T00:21:25.880Z,8.30
2022-09-06T00:23:55.259Z,11.80
2022-09-06T00:26:24.010Z,8.20
2022-09-06T00:28:53.070Z,6.40
2022-09-06T00:31:24.745Z,11.30
2022-09-06T00:33:54.203Z,9.90
2022-09-06T00:36:23.157Z,13.20
2022-09-06T00:38:51.778Z,12.10
2022-09-06T00:41:21.594Z,12.40
2022-09-06T00:46:23.249Z,9.90
2022-09-06T00:48:59.303Z,8.30
2022-09-06T00:51:29.829Z,9.10
2022-09-06T00:53:59.717Z,9.00
2022-09-06T00:56:29.381Z,8.80
2022-09-06T00:58:58.872Z,6.80
2022-09-06T01:01:28.571Z,11.80
2022-09-06T01:03:57.657Z,10.10
2022-09-06T01:06:35.141Z,9.90
2022-09-06T01:09:24.816Z,7.70
2022-09-06T01:12:14.615Z,8.70
2022-09-06T01:14:55.780Z,7.60
2022-09-06T01:17:56.933Z,10.10
2022-09-06T01:20:42.312Z,8.40
2022-09-06T01:23:48.818Z,10.90
2022-09-06T01:26:55.141Z,8.30
2022-09-06T01:29:37.427Z,9.10
2022-09-06T01:32:55.875Z,8.90
2022-09-06T01:35:58.282Z,7.90
2022-09-06T01:38:28.126Z,16.60
2022-09-06T01:40:57.124Z,12.20
2022-09-06T01:43:35.895Z,15.10
2022-09-06T01:46:20.572Z,15.60
2022-09-06T01:48:57.981Z,14.90
2022-09-06T01:51:41.082Z,13.80
2022-09-06T01:54:34.912Z,17.70
2022-09-06T01:57:28.195Z,18.60
2022-09-06T02:00:11.777Z,18.10
2022-09-06T02:03:06.686Z,20.50
2022-09-06T02:05:52.488Z,20.10
2022-09-06T02:08:26.986Z,19.20
2022-09-06T02:11:00.089Z,16.80
2022-09-06T02:13:43.127Z,22.80
2022-09-06T02:16:18.403Z,24.10
2022-09-06T02:19:27.067Z,21.20
2022-09-06T02:21:58.370Z,20.60
2022-09-06T02:24:31.960Z,20.10
2022-09-06T02:27:01.406Z,21.10
2022-09-06T02:29:30.887Z,21.50
2022-09-06T02:32:19.645Z,22.50
2022-09-06T02:34:50.661Z,25.80
2022-09-06T02:37:19.854Z,24.50
2022-09-06T02:39:48.550Z,24.30
2022-09-06T02:42:18.034Z,22.50
2022-09-06T02:44:46.679Z,24.00
2022-09-06T02:47:16.148Z,21.60
2022-09-06T02:49:45.346Z,25.10
2022-09-06T02:52:14.040Z,24.50
2022-09-06T02:54:42.899Z,24.60
2022-09-06T02:57:15.046Z,23.00
2022-09-06T02:59:44.031Z,25.20
2022-09-06T03:02:13.449Z,21.90
2022-09-06T03:04:42.087Z,19.90
2022-09-06T03:07:10.729Z,22.50
2022-09-06T03:09:39.821Z,24.20
2022-09-06T03:12:08.761Z,25.90
2022-09-06T03:14:41.645Z,22.40
2022-09-06T03:17:17.144Z,23.40
2022-09-06T03:19:46.863Z,23.10
2022-09-06T03:22:15.735Z,21.20
2022-09-06T03:24:45.848Z,22.40
2022-09-06T03:27:14.850Z,23.70
2022-09-06T03:29:43.588Z,25.50
2022-09-06T03:32:12.530Z,22.10
2022-09-06T03:34:41.408Z,20.80
2022-09-06T03:37:10.807Z,16.20
2022-09-06T03:39:39.873Z,17.50
2022-09-06T03:42:10.738Z,17.70
2022-09-06T03:44:39.942Z,17.80
2022-09-06T03:47:08.855Z,14.10
2022-09-06T03:49:37.424Z,18.80
2022-09-06T03:52:06.839Z,20.70
2022-09-06T03:54:35.719Z,14.40
2022-09-06T03:57:04.534Z,15.60
2022-09-06T03:59:33.683Z,14.30
2022-09-06T04:02:02.736Z,20.60
2022-09-06T04:04:31.330Z,11.40
2022-09-06T04:07:00.338Z,12.50
2022-09-06T04:09:29.599Z,15.10
2022-09-06T04:11:58.199Z,14.20
2022-09-06T04:14:27.469Z,15.90
2022-09-06T04:16:56.396Z,17.40
2022-09-06T04:19:25.023Z,19.10
2022-09-06T04:21:53.920Z,13.90
2022-09-06T04:24:23.253Z,12.40
2022-09-06T04:26:51.876Z,17.90
2022-09-06T04:29:20.555Z,11.60
2022-09-06T04:31:49.925Z,13.40
2022-09-06T04:34:20.119Z,13.80
2022-09-06T04:36:48.996Z,18.10
2022-09-06T04:39:18.441Z,16.90
2022-09-06T04:41:47.101Z,19.60
2022-09-06T04:44:16.044Z,16.20
2022-09-06T04:46:45.159Z,12.50
2022-09-06T04:49:13.701Z,14.80
2022-09-06T04:51:42.451Z,19.20
2022-09-06T04:54:11.689Z,15.20
2022-09-06T04:56:40.822Z,12.70
2022-09-06T04:59:09.608Z,13.00
2022-09-06T05:01:38.319Z,13.80
2022-09-06T05:04:07.239Z,16.40
2022-09-06T05:06:36.291Z,17.90
2022-09-06T05:09:05.014Z,16.30
2022-09-06T05:11:34.117Z,59.70
2022-09-06T05:14:03.525Z,17.50
2022-09-06T05:16:32.522Z,17.00
2022-09-06T05:19:01.136Z,18.80
2022-09-06T05:21:30.320Z,16.30
2022-09-06T05:23:59.219Z,18.50
2022-09-06T05:26:27.996Z,19.00
2022-09-06T05:28:57.388Z,20.30
2022-09-06T05:31:29.424Z,14.50
2022-09-06T05:33:58.714Z,26.60
2022-09-06T05:36:29.278Z,18.40
2022-09-06T05:38:59.125Z,14.80
2022-09-06T05:41:28.408Z,14.70
2022-09-06T05:43:57.010Z,15.30
2022-09-06T05:46:27.502Z,17.40
2022-09-06T05:49:01.440Z,18.50
2022-09-06T05:51:30.238Z,15.30
2022-09-06T05:53:59.580Z,16.20
2022-09-06T05:56:28.207Z,22.90
2022-09-06T05:58:56.994Z,16.50
2022-09-06T06:01:28.515Z,16.10
2022-09-06T06:04:04.230Z,16.80
2022-09-06T06:06:34.996Z,15.00
2022-09-06T06:09:04.214Z,12.70
2022-09-06T06:11:33.059Z,13.80
2022-09-06T06:14:03.808Z,12.30
2022-09-06T06:16:33.219Z,12.90
2022-09-06T06:19:03.071Z,11.00
2022-09-06T06:21:39.882Z,9.80
2022-09-06T06:24:09.024Z,13.50
2022-09-06T06:26:38.351Z,9.90
2022-09-06T06:29:09.996Z,13.30
2022-09-06T06:31:39.659Z,12.90
2022-09-06T06:34:09.467Z,9.10
2022-09-06T06:36:40.384Z,11.30
2022-09-06T06:39:09.429Z,11.10
2022-09-06T06:41:38.111Z,12.10
2022-09-06T06:44:19.199Z,13.40
2022-09-06T06:46:47.891Z,17.10
2022-09-06T06:49:16.485Z,16.70
2022-09-06T06:51:45.523Z,54.20
2022-09-06T06:54:15.358Z,49.30
2022-09-06T06:56:45.941Z,26.30
2022-09-06T06:59:14.951Z,18.80
2022-09-06T07:01:43.988Z,13.10
2022-09-06T07:04:14.644Z,23.20
2022-09-06T07:12:32.940Z,14.40
2022-09-06T07:15:01.533Z,13.80
2022-09-06T07:17:30.216Z,19.90
2022-09-06T07:20:15.259Z,14.60
2022-09-06T07:22:44.465Z,17.10
2022-09-06T07:25:20.395Z,19.50
2022-09-06T07:27:59.046Z,13.80
2022-09-06T07:30:31.137Z,19.50
2022-09-06T07:33:01.263Z,20.90
2022-09-06T07:38:00.723Z,23.80
2022-09-06T07:40:31.767Z,13.50
2022-09-06T07:43:00.859Z,17.40
2022-09-06T07:45:29.525Z,24.10
2022-09-06T07:48:00.294Z,17.10
2022-09-06T07:50:47.984Z,13.30
2022-09-06T07:53:24.669Z,19.70
2022-09-06T07:56:19.621Z,12.40
2022-09-06T07:59:08.306Z,13.40
2022-09-06T08:01:49.489Z,7.40
2022-09-06T08:04:20.574Z,10.70
2022-09-06T08:09:41.356Z,16.20
2022-09-06T08:12:12.359Z,11.40
2022-09-06T08:14:41.022Z,9.10
2022-09-06T08:17:10.553Z,15.60
2022-09-06T08:19:39.730Z,13.20
2022-09-06T08:22:08.973Z,14.40
2022-09-06T08:24:37.894Z,9.80
2022-09-06T08:27:10.042Z,7.10
2022-09-06T08:29:40.361Z,13.90
2022-09-06T08:32:09.261Z,10.00
2022-09-06T08:34:38.155Z,9.10
2022-09-06T08:37:07.205Z,13.40
2022-09-06T08:39:36.557Z,12.90
2022-09-06T08:42:07.621Z,11.30
2022-09-06T08:47:27.504Z,14.20
2022-09-06T08:50:01.470Z,20.60
2022-09-06T08:52:41.825Z,19.00
2022-09-06T08:55:25.708Z,15.40
2022-09-06T08:58:18.874Z,10.30
2022-09-06T09:00:53.250Z,12.90
2022-09-06T09:03:39.225Z,12.60
2022-09-06T09:06:10.696Z,14.90
2022-09-06T09:08:44.701Z,16.10
2022-09-06T09:11:19.497Z,7.90
2022-09-06T09:13:56.737Z,16.10
2022-09-06T09:16:26.678Z,9.60
2022-09-06T09:21:34.826Z,10.00
2022-09-06T09:24:13.145Z,8.70
2022-09-06T09:26:54.970Z,12.10
2022-09-06T09:29:27.965Z,9.60
2022-09-06T09:31:57.764Z,11.10
2022-09-06T09:34:40.053Z,10.50
2022-09-06T09:40:26.321Z,12.60
2022-09-06T09:43:10.248Z,9.40
2022-09-06T09:45:40.788Z,9.10
2022-09-06T09:48:28.511Z,10.70
2022-09-06T09:51:23.878Z,9.40
2022-09-06T09:53:59.274Z,9.40
2022-09-06T09:56:39.191Z,24.90
2022-09-06T09:59:31.315Z,10.30
2022-09-06T10:02:02.880Z,13.50
2022-09-06T10:07:14.228Z,9.30
2022-09-06T10:09:58.169Z,14.90
2022-09-06T10:12:34.343Z,12.50
2022-09-06T10:15:07.101Z,9.00
2022-09-06T10:17:43.590Z,9.40
2022-09-06T10:20:15.867Z,17.20
2022-09-06T10:23:09.400Z,13.90
2022-09-06T10:25:53.730Z,13.70
2022-09-06T10:28:39.351Z,11.50
2022-09-06T10:31:13.445Z,16.00
2022-09-06T10:34:04.325Z,7.50
2022-09-06T10:36:38.988Z,11.60
2022-09-06T10:39:33.636Z,10.10
2022-09-06T10:42:12.045Z,9.70
2022-09-06T10:45:03.833Z,11.30
2022-09-06T10:47:47.454Z,6.70
2022-09-06T10:50:17.481Z,12.10
2022-09-06T10:52:49.375Z,9.90
2022-09-06T10:55:19.968Z,10.20
2022-09-06T10:58:17.884Z,7.70
2022-09-06T11:00:53.704Z,10.40
2022-09-06T11:03:55.665Z,8.80
2022-09-06T11:06:42.707Z,11.20
2022-09-06T11:09:31.937Z,6.20
2022-09-06T11:12:16.466Z,9.50
2022-09-06T11:14:46.679Z,9.20
2022-09-06T11:17:35.044Z,6.40
2022-09-06T11:20:07.297Z,8.40
2022-09-06T11:22:39.033Z,8.60
2022-09-06T11:25:27.662Z,9.50
2022-09-06T11:27:59.873Z,7.90
2022-09-06T11:30:30.617Z,8.30
2022-09-06T11:33:30.119Z,15.60
2022-09-06T11:36:39.274Z,9.00
2022-09-06T11:39:10.167Z,11.20
2022-09-06T11:41:41.673Z,6.50
2022-09-06T11:44:11.318Z,10.80
2022-09-06T11:46:43.255Z,7.50
2022-09-06T11:49:15.465Z,6.20
2022-09-06T11:51:45.647Z,9.00
2022-09-06T11:54:23.355Z,11.60
2022-09-06T11:57:15.337Z,8.90
2022-09-06T12:00:02.115Z,8.50
2022-09-06T12:02:41.863Z,6.60
2022-09-06T12:05:12.276Z,10.40
2022-09-06T12:08:23.267Z,13.20
2022-09-06T12:11:03.666Z,9.00
2022-09-06T12:13:41.198Z,12.30
2022-09-06T12:16:14.797Z,10.40
2022-09-06T12:18:43.491Z,12.20
2022-09-06T12:21:32.225Z,9.60
2022-09-06T12:24:02.417Z,10.20
2022-09-06T12:26:56.121Z,8.10
2022-09-06T12:29:27.286Z,7.90
2022-09-06T12:31:58.254Z,7.10
2022-09-06T12:34:36.092Z,14.90
2022-09-06T12:39:38.477Z,6.20
2022-09-06T12:42:18.944Z,9.30
2022-09-06T12:44:55.502Z,9.10
2022-09-06T12:47:36.176Z,6.70
2022-09-06T12:50:17.556Z,9.90
2022-09-06T12:52:56.961Z,9.60
2022-09-06T12:55:35.095Z,6.70
2022-09-06T12:58:08.574Z,7.60
2022-09-06T13:00:45.427Z,6.70
2022-09-06T13:03:35.873Z,8.70
2022-09-06T13:06:06.960Z,9.60
2022-09-06T13:08:48.487Z,8.70
2022-09-06T13:11:23.956Z,11.90
2022-09-06T13:13:55.303Z,8.70
2022-09-06T13:16:35.611Z,7.80
2022-09-06T13:19:14.067Z,10.50
2022-09-06T13:21:45.326Z,8.60
2022-09-06T13:24:26.375Z,11.60
2022-09-06T13:26:55.376Z,11.00
2022-09-06T13:29:31.097Z,8.10
2022-09-06T13:32:02.816Z,6.80
2022-09-06T13:34:34.567Z,9.90
2022-09-06T13:37:10.671Z,6.70
2022-09-06T13:39:46.897Z,6.70
2022-09-06T13:42:38.603Z,10.10
2022-09-06T13:45:37.076Z,10.30
2022-09-06T13:48:26.149Z,9.70
2022-09-06T13:50:56.430Z,7.30
2022-09-06T13:53:25.664Z,9.20
2022-09-06T13:55:54.485Z,7.30
2022-09-06T13:58:24.901Z,9.70
2022-09-06T14:00:55.027Z,7.50
2022-09-06T14:03:42.859Z,9.60
2022-09-06T14:06:11.737Z,11.00
2022-09-06T14:09:09.710Z,6.20
2022-09-06T14:11:29.507Z,9.50
2022-09-06T14:13:58.484Z,7.50
2022-09-06T14:16:27.900Z,7.20
2022-09-06T14:18:57.078Z,7.90
2022-09-06T14:21:26.185Z,7.60
2022-09-06T14:23:54.925Z,8.80
2022-09-06T14:26:23.755Z,10.70
2022-09-06T14:28:52.718Z,9.10
2022-09-06T14:31:26.585Z,7.40
2022-09-06T14:33:57.221Z,8.90
2022-09-06T14:38:58.985Z,11.70
2022-09-06T14:41:28.448Z,14.80
2022-09-06T14:43:59.435Z,8.10
2022-09-06T14:46:29.248Z,9.80
2022-09-06T14:51:40.207Z,7.40
2022-09-06T14:54:11.863Z,9.80
2022-09-06T14:56:42.443Z,9.90
2022-09-06T14:59:12.574Z,14.00
2022-09-06T15:01:41.899Z,9.90
2022-09-06T15:04:12.364Z,15.90
2022-09-06T15:06:45.630Z,12.80
2022-09-06T15:09:17.806Z,10.00
2022-09-06T15:11:52.584Z,9.50
2022-09-06T15:14:24.278Z,10.90
2022-09-06T15:16:57.442Z,9.60
2022-09-06T15:19:28.635Z,10.60
2022-09-06T15:21:58.657Z,8.20
2022-09-06T15:24:28.925Z,8.50
2022-09-06T15:29:28.561Z,9.60
2022-09-06T15:31:57.735Z,8.30
2022-09-06T15:34:27.284Z,9.50
2022-09-06T15:36:57.476Z,6.40
2022-09-06T15:39:26.033Z,12.90
2022-09-06T15:41:54.831Z,9.40
2022-09-06T15:44:23.649Z,15.10
2022-09-06T15:46:54.340Z,8.60
2022-09-06T15:49:28.910Z,9.30
2022-09-06T15:52:01.123Z,8.00
2022-09-06T15:54:49.395Z,9.70
2022-09-06T15:57:18.669Z,9.40
2022-09-06T15:59:47.674Z,11.00
2022-09-06T16:02:16.506Z,6.80
2022-09-06T16:04:46.718Z,9.70
2022-09-06T16:09:44.330Z,13.00
2022-09-06T16:12:13.593Z,9.30
2022-09-06T16:14:42.363Z,11.80
2022-09-06T16:17:13.243Z,12.50
2022-09-06T16:19:42.019Z,7.70
2022-09-06T16:22:10.721Z,10.40
2022-09-06T16:24:39.952Z,12.70
2022-09-06T16:27:09.270Z,17.60
2022-09-06T16:29:38.679Z,11.40
2022-09-06T16:32:08.153Z,8.90
2022-09-06T16:34:40.980Z,11.60
2022-09-06T16:37:10.255Z,10.70
2022-09-06T16:39:39.430Z,13.10
2022-09-06T16:42:08.695Z,12.90
2022-09-06T16:44:38.610Z,12.00
2022-09-06T16:49:36.389Z,12.70
2022-09-06T16:52:05.018Z,10.60
2022-09-06T16:54:34.168Z,9.70
2022-09-06T16:57:03.082Z,9.00
2022-09-06T16:59:31.576Z,12.10
2022-09-06T17:02:13.905Z,11.20
2022-09-06T17:05:05.039Z,11.50
2022-09-06T17:07:55.934Z,9.10
2022-09-06T17:10:45.430Z,13.70
2022-09-06T17:13:35.296Z,13.60
2022-09-06T17:16:39.500Z,10.30
2022-09-06T17:19:30.222Z,11.80
2022-09-06T17:22:21.576Z,11.80
2022-09-06T17:25:19.721Z,15.00
2022-09-06T17:28:09.644Z,13.00
2022-09-06T17:31:00.927Z,10.80
2022-09-06T17:33:57.761Z,12.80
2022-09-06T17:36:57.721Z,11.80
2022-09-06T17:39:37.843Z,11.50
2022-09-06T17:42:27.540Z,16.00
2022-09-06T17:44:56.163Z,18.70
2022-09-06T17:47:25.372Z,15.50
2022-09-06T17:49:54.359Z,13.40
2022-09-06T17:52:23.112Z,11.30
2022-09-06T17:54:52.403Z,13.70
2022-09-06T17:57:21.687Z,14.60
2022-09-06T17:59:50.354Z,18.10
2022-09-06T18:02:19.297Z,20.30
2022-09-06T18:04:48.571Z,12.90
2022-09-06T18:07:17.841Z,14.80
2022-09-06T18:09:47.033Z,14.70
2022-09-06T18:12:16.218Z,26.40
2022-09-06T18:14:44.760Z,14.20
2022-09-06T18:17:13.400Z,14.10
2022-09-06T18:19:42.752Z,13.20
2022-09-06T18:22:12.656Z,14.20
2022-09-06T18:24:41.208Z,11.80
2022-09-06T18:27:10.492Z,11.30
2022-09-06T18:29:39.552Z,14.50
2022-09-06T18:32:08.406Z,13.30
2022-09-06T18:34:38.349Z,12.00
2022-09-06T18:37:06.993Z,11.40
2022-09-06T18:39:35.617Z,14.40
2022-09-06T18:42:10.902Z,11.10
2022-09-06T18:44:39.859Z,14.50
2022-09-06T18:47:09.828Z,13.60
2022-09-06T18:49:43.807Z,14.30
2022-09-06T18:52:14.072Z,12.30
2022-09-06T18:54:45.341Z,8.60
2022-09-06T18:57:16.293Z,13.20
2022-09-06T18:59:44.888Z,15.70
2022-09-06T19:02:13.928Z,12.50
2022-09-06T19:04:43.852Z,13.30
2022-09-06T19:07:12.783Z,10.90
2022-09-06T19:09:42.330Z,17.30
2022-09-06T19:12:12.332Z,18.90
2022-09-06T19:14:41.202Z,10.80
2022-09-06T19:17:10.095Z,14.90
2022-09-06T19:19:39.045Z,8.90
2022-09-06T19:22:10.030Z,12.70
2022-09-06T19:24:40.283Z,12.50
2022-09-06T19:27:10.892Z,15.00
2022-09-06T19:32:08.977Z,14.30
2022-09-06T19:34:38.434Z,15.30
2022-09-06T19:37:07.628Z,14.10
2022-09-06T19:39:37.437Z,11.90
2022-09-06T19:42:07.851Z,12.30
2022-09-06T19:44:36.317Z,13.90
2022-09-06T19:47:05.895Z,10.40
2022-09-06T19:52:10.151Z,19.40
2022-09-06T19:54:39.801Z,11.10
2022-09-06T19:57:08.534Z,11.90
2022-09-06T19:59:37.545Z,14.80
2022-09-06T20:02:06.955Z,10.10
2022-09-06T20:04:35.712Z,9.30
2022-09-06T20:07:04.383Z,11.70
2022-09-06T20:09:33.486Z,9.30
2022-09-06T20:12:03.157Z,8.30
2022-09-06T20:14:32.830Z,9.20
2022-09-06T20:17:22.679Z,8.00
2022-09-06T20:19:52.156Z,8.90
2022-09-06T20:22:22.256Z,10.80
2022-09-06T20:24:54.047Z,10.80
2022-09-06T20:27:23.261Z,8.30
2022-09-06T20:29:52.379Z,8.40
2022-09-06T20:32:21.300Z,8.80
2022-09-06T20:34:50.725Z,7.10
2022-09-06T20:37:21.416Z,14.00
2022-09-06T20:39:50.459Z,9.40
2022-09-06T20:42:19.821Z,9.50
2022-09-06T20:44:48.627Z,14.20
2022-09-06T20:47:17.547Z,10.60
2022-09-06T20:49:46.492Z,10.30
2022-09-06T20:52:15.287Z,13.30
2022-09-06T20:54:44.377Z,8.60
2022-09-06T20:57:13.390Z,11.60
2022-09-06T20:59:42.234Z,7.90
2022-09-06T21:02:11.105Z,8.10
2022-09-06T21:04:40.004Z,8.10
2022-09-06T21:07:09.363Z,10.50
2022-09-06T21:09:38.091Z,7.10
2022-09-06T21:12:06.953Z,7.30
2022-09-06T21:14:35.960Z,8.40
2022-09-06T21:17:04.918Z,10.30
2022-09-06T21:19:36.786Z,10.60
2022-09-06T21:22:06.136Z,9.50
2022-09-06T21:24:35.274Z,6.10
2022-09-06T21:27:04.207Z,11.70
2022-09-06T21:29:33.588Z,12.20
2022-09-06T21:32:03.089Z,8.00
2022-09-06T21:34:31.716Z,8.10
2022-09-06T21:37:00.296Z,9.70
2022-09-06T21:39:29.790Z,9.20
2022-09-06T21:41:58.272Z,8.70
2022-09-06T21:44:27.137Z,11.10
2022-09-06T21:46:57.081Z,11.00
2022-09-06T21:49:25.944Z,13.00
2022-09-06T21:51:54.580Z,10.80
2022-09-06T21:54:24.107Z,13.00
2022-09-06T21:56:52.652Z,9.10
2022-09-06T21:59:21.334Z,9.00
2022-09-06T22:01:53.093Z,10.20
2022-09-06T22:04:21.941Z,11.50
2022-09-06T22:06:51.256Z,11.90
2022-09-06T22:09:20.123Z,9.90
2022-09-06T22:11:48.929Z,10.00
2022-09-06T22:14:17.736Z,9.80
2022-09-06T22:16:46.894Z,8.90
2022-09-06T22:19:15.824Z,9.90
2022-09-06T22:21:44.501Z,8.40
2022-09-06T22:24:15.990Z,13.20
2022-09-06T22:26:46.178Z,11.80
2022-09-06T22:31:44.718Z,8.30
2022-09-06T22:34:13.867Z,11.60
2022-09-06T22:36:42.787Z,10.90
2022-09-06T22:39:11.404Z,11.70
2022-09-06T22:41:40.313Z,12.60
2022-09-06T22:44:09.500Z,8.40
2022-09-06T22:46:38.639Z,12.60
2022-09-06T22:49:07.708Z,13.90
2022-09-06T22:51:36.524Z,6.70
2022-09-06T22:54:06.201Z,11.30
2022-09-06T22:56:36.362Z,10.20
2022-09-06T22:59:06.209Z,11.60
2022-09-06T23:01:39.978Z,11.00
2022-09-06T23:04:10.096Z,15.10
2022-09-06T23:06:38.693Z,8.80
2022-09-06T23:09:07.833Z,18.10
2022-09-06T23:11:36.905Z,8.80
2022-09-06T23:14:06.013Z,8.80
2022-09-06T23:16:35.527Z,12.70
2022-09-06T23:19:05.597Z,10.40
2022-09-06T23:21:34.158Z,12.80
2022-09-06T23:24:03.273Z,11.50
2022-09-06T23:26:33.000Z,15.20
2022-09-06T23:29:01.679Z,11.70
2022-09-06T23:31:34.716Z,10.80
2022-09-06T23:34:03.892Z,14.30
2022-09-06T23:36:32.981Z,8.20
2022-09-06T23:39:02.984Z,12.30
2022-09-06T23:44:01.112Z,13.70
2022-09-06T23:46:30.734Z,10.20
2022-09-06T23:49:02.404Z,12.00
2022-09-06T23:51:31.031Z,11.10
2022-09-06T23:54:00.335Z,10.60
2022-09-06T23:56:29.452Z,13.20
2022-09-06T23:58:58.221Z,11.50
